createdAt,value
2022-07-27T00:07:53.579Z,1.4
2022-07-27T00:19:53.617Z,1.3
2022-07-27T00:31:53.653Z,1.3
2022-07-27T00:43:54.132Z,1.3
2022-07-27T00:55:53.638Z,1.1
2022-07-27T01:07:53.621Z,1.1
2022-07-27T01:19:54.238Z,1.2
2022-07-27T01:31:54.258Z,1.2
2022-07-27T01:43:53.846Z,1.2
2022-07-27T01:55:54.155Z,1.3
2022-07-27T02:07:54.174Z,1.3
2022-07-27T02:19:53.799Z,1.2
2022-07-27T02:31:53.561Z,1.2
2022-07-27T02:43:53.575Z,1.2
2022-07-27T02:55:54.131Z,1.5
2022-07-27T03:07:53.591Z,1.5
2022-07-27T03:19:54.203Z,1.4
2022-07-27T03:31:53.590Z,1.4
2022-07-27T03:43:53.673Z,1.4
2022-07-27T03:55:54.094Z,1.6
2022-07-27T04:07:54.914Z,1.6
2022-07-27T04:19:53.764Z,1.5
2022-07-27T04:31:54.055Z,1.5
2022-07-27T04:43:53.771Z,1.5
2022-07-27T04:55:53.987Z,1.9
2022-07-27T05:07:54.090Z,1.9
2022-07-27T05:19:53.763Z,1.8
2022-07-27T05:31:54.016Z,1.8
2022-07-27T05:43:53.946Z,1.8
2022-07-27T05:55:59.055Z,2.2
2022-07-27T06:07:53.937Z,2.2
2022-07-27T06:19:53.593Z,2.3
2022-07-27T06:31:53.781Z,2.3
2022-07-27T06:43:53.691Z,2.3
2022-07-27T06:55:53.987Z,1.7
2022-07-27T07:07:54.112Z,1.7
2022-07-27T07:19:53.584Z,1.3
2022-07-27T07:31:54.068Z,1.3
2022-07-27T07:43:53.904Z,1.3
2022-07-27T07:55:53.626Z,1.3
2022-07-27T08:07:54.002Z,1.3
2022-07-27T08:19:54.141Z,1.2
2022-07-27T08:31:54.319Z,1.2
2022-07-27T08:43:53.982Z,1.2
2022-07-27T08:55:53.746Z,1.0
2022-07-27T09:07:53.693Z,1.0
2022-07-27T09:19:54.111Z,2.1
2022-07-27T09:31:53.596Z,2.1
2022-07-27T09:44:30.543Z,2.1
2022-07-27T09:55:58.952Z,1.4
2022-07-27T10:07:53.875Z,1.4
2022-07-27T10:19:53.562Z,1.2
2022-07-27T10:31:53.630Z,1.2
2022-07-27T10:43:54.038Z,1.2
2022-07-27T10:55:53.902Z,1.4
2022-07-27T11:08:34.897Z,1.4
2022-07-27T11:19:53.428Z,0.9
2022-07-27T11:31:55.917Z,0.9
2022-07-27T11:43:53.935Z,0.9
2022-07-27T11:55:53.460Z,0.8
2022-07-27T12:07:53.590Z,0.8
2022-07-27T12:19:53.616Z,0.9
2022-07-27T12:31:53.471Z,0.9
2022-07-27T12:43:53.466Z,0.9
2022-07-27T12:55:53.442Z,1.1
2022-07-27T13:07:53.438Z,1.1
2022-07-27T13:19:53.773Z,1.2
2022-07-27T13:31:57.311Z,1.2
2022-07-27T13:43:53.826Z,1.2
2022-07-27T13:55:53.496Z,1.2
2022-07-27T14:07:53.729Z,1.2
2022-07-27T14:19:53.457Z,1.0
2022-07-27T14:31:53.698Z,1.0
2022-07-27T14:43:53.878Z,1.0
2022-07-27T14:55:53.729Z,0.9
2022-07-27T15:07:53.466Z,0.9
2022-07-27T15:19:53.857Z,0.9
2022-07-27T15:31:53.987Z,0.9
2022-07-27T15:43:53.972Z,0.9
2022-07-27T15:55:53.678Z,0.8
2022-07-27T16:07:53.870Z,0.8
2022-07-27T16:19:53.919Z,1.0
2022-07-27T16:31:54.068Z,1.0
2022-07-27T16:43:54.036Z,1.0
2022-07-27T16:55:53.837Z,0.9
2022-07-27T17:07:53.951Z,0.9
2022-07-27T17:19:53.597Z,1.5
2022-07-27T17:31:53.995Z,1.5
2022-07-27T17:43:53.928Z,1.5
2022-07-27T17:55:54.137Z,1.1
2022-07-27T18:07:54.098Z,1.1
2022-07-27T18:19:53.651Z,1.4
2022-07-27T18:31:53.662Z,1.4
2022-07-27T18:43:53.653Z,1.4
2022-07-27T18:55:56.437Z,1.3
2022-07-27T19:07:53.723Z,1.3
2022-07-27T19:19:53.747Z,1.1
2022-07-27T19:31:54.211Z,1.1
2022-07-27T19:43:53.642Z,1.1
2022-07-27T19:55:53.707Z,1.3
2022-07-27T20:07:54.151Z,1.3
2022-07-27T20:19:54.027Z,1.5
2022-07-27T20:31:55.445Z,1.5
2022-07-27T20:43:54.091Z,1.5
2022-07-27T20:55:53.749Z,2.5
2022-07-27T21:07:53.971Z,2.5
2022-07-27T21:19:53.633Z,1.3
2022-07-27T21:31:54.100Z,1.3
2022-07-27T21:43:53.722Z,1.3
2022-07-27T21:55:53.677Z,1.2
2022-07-27T22:07:53.812Z,1.2
2022-07-27T22:19:53.586Z,1.2
2022-07-27T22:31:53.688Z,1.2
2022-07-27T22:43:53.505Z,1.2
2022-07-27T22:55:53.903Z,1.2
2022-07-27T23:07:53.495Z,1.2
2022-07-27T23:19:53.674Z,1.1
2022-07-27T23:31:53.598Z,1.1
2022-07-27T23:43:53.532Z,1.1
2022-07-27T23:55:53.810Z,1.1
